Airfield :
LOGIN :

Register | Disclaimer

   EN    FR    IT 

 










Legend :    VFR   Marginal VFR   IFR   Intensive IFR   Very Intensive IFR
Visi :
Ceiling :
>= 8 km
>= 3000ft
5 to 8 km
1000 to 3000 ft
1500m to 5 km
500 to 1000 ft
800 to 1500m
200 to 500 ft
< 800m
< 200 ft
Symbols :   Thunderstorms  Fog  Heavy snow  Heavy precipitations  Wind > 20 kt
SIGMETs :     Misc.  Thunderstorms  Icing  Turbulence  Mountain Waves  Volcanic Ashes







- Airport Elevation : 242 ft
- IATA code : DUB


EIDW - Dublin

CURRENT METAR :
  • 272300Z 34002KT 9999 FEW016 BKN060 BKN250 13/12 Q1018 NOSIG

EXPIRED METARs :
  • 272230Z VRB02KT 8000 FEW012 BKN060 BKN250 13/12 Q1018 NOSIG
  • 272200Z 36003KT 7000 FEW012 SCT050 BKN250 13/12 Q1018 NOSIG
  • 272130Z 04007KT 7000 FEW012 SCT050 BKN250 14/13 Q1017 NOSIG
  • 272100Z 03006KT 8000 FEW012 SCT050 BKN250 13/13 Q1017 NOSIG
  • 272030Z 03006KT 8000 FEW012 SCT120 BKN250 14/13 Q1017 NOSIG

TAF TAF EIDW
Valid from the 27 at 18:00 until the 28 at 18:00 UTC


271700Z 2718/2818 07007KT 8000 FEW010 SCT040
BECMG 2718/2720 VRB03KT
PROB30
TEMPO 2719/2721 5000 BR
TEMPO 2721/2807 3000 BR BKN007
PROB30
TEMPO 2723/2807 0500 FG BKN001
BECMG 2804/2806 35005KT
BECMG 2806/2809 02006KT
PROB30
TEMPO 2807/2810 BKN010
BECMG 2809/2811 05007KT
No reported NOTAMs for that airfield.



MET'MAP, your aeronautical weather chart ! - Copyright ORBIFLY December 2007 - Disclaimer

ORBIFLY MET'MAP TEAM :

Programming & Development : Alexandra Zaïnal
Concept & Development : Baudouin d'Aumeries
Co-Development & Prog : Marc-Olivier Méhu
Technical & hardware support : Manuel Goepfert

Contact : metmap@orbifly.com




SOURCES & CREDITS :

   NOAA